Aviation Digital Data Service (ADDS)

Output produced by METARs form (1211 UTC 24 February 2018)
found at http://aviationweather.gov/adds/metars/
 
EFTP 241150Z AUTO 02006KT CAVOK M13/M17 Q1038
EFTP 241120Z AUTO 01007KT CAVOK M14/M18 Q1038
EFTP 241050Z AUTO 02006KT CAVOK M14/M18 Q1039
EFTP 241020Z AUTO 02007KT CAVOK M15/M18 Q1039
EFTP 240950Z AUTO 03006KT CAVOK M16/M19 Q1039
EFTP 240920Z AUTO 02007KT CAVOK M17/M19 Q1039
EFTP 240850Z AUTO 02006KT CAVOK M17/M20 Q1039
EFTP 240820Z AUTO 01005KT CAVOK M18/M20 Q1038
EFTP 240750Z AUTO 02005KT CAVOK M18/M21 Q1038
EFTP 240720Z AUTO 01004KT CAVOK M19/M21 Q1038
EFTP 240650Z AUTO 01004KT CAVOK M19/M21 Q1038
EFTP 240620Z AUTO 01003KT CAVOK M19/M21 Q1038
EFTP 240550Z AUTO VRB02KT CAVOK M20/M22 Q1038
EFTP 240520Z AUTO 02003KT CAVOK M19/M22 Q1038
EFTP 240450Z AUTO VRB03KT CAVOK M19/M21 Q1037
EFTP 240420Z AUTO VRB03KT CAVOK M19/M21 Q1037
EFTP 240350Z AUTO 36004KT CAVOK M18/M21 Q1037
EFTP 240320Z AUTO 02006KT 9999 -SHSN NCD M19/M21 Q1037
EFTP 240250Z AUTO 02006KT 9999 -SHSN NCD M18/M20 Q1037
EFTP 240220Z AUTO 02005KT 9999 -SHSN NCD M19/M21 Q1036
EFTP 240150Z AUTO 02005KT 9999 -SHSN NCD M20/M22 Q1036
EFTP 240120Z AUTO 02004KT 9999 -SHSN NCD M21/M23 Q1036
EFTP 240050Z AUTO 02004KT CAVOK M21/M23 Q1036
EFTP 240020Z AUTO 36002KT 9999 -SHSN NCD M21/M23 Q1036
EFTP 232350Z AUTO VRB03KT CAVOK M20/M22 Q1036
EFTP 232320Z AUTO 35003KT 9999 -SHUP NCD M21/M23 Q1035
EFTP 232250Z AUTO 02002KT CAVOK M19/M21 Q1035
EFTP 232220Z AUTO 02003KT CAVOK M19/M21 Q1035
EFTP 232150Z AUTO 01004KT CAVOK M18/M20 Q1035
EFTP 232120Z AUTO 03003KT CAVOK M17/M18 Q1034
EFTP 232050Z AUTO 01004KT CAVOK M15/M17 Q1034
EFTP 232020Z AUTO 03005KT CAVOK M14/M16 Q1034
EFTP 231950Z AUTO 03006KT CAVOK M14/M16 Q1034
EFTP 231920Z AUTO 03006KT CAVOK M14/M16 Q1033
EFTP 231850Z AUTO 02005KT CAVOK M13/M15 Q1033
EFTP 231820Z AUTO 02005KT CAVOK M12/M15 Q1033
EFTP 231750Z AUTO 02004KT CAVOK M12/M15 Q1032
EFTP 231720Z AUTO 02006KT CAVOK M13/M15 Q1032
EFTP 231650Z AUTO 02004KT CAVOK M12/M15 Q1032
EFTP 231620Z AUTO 01005KT CAVOK M12/M15 Q1032
EFTP 231550Z AUTO 01006KT CAVOK M11/M14 Q1031
EFTP 231520Z AUTO 01006KT CAVOK M10/M14 Q1031
EFTP 231450Z AUTO 02005KT CAVOK M10/M14 Q1030
EFTP 231420Z AUTO 02006KT 9999 -SHSN NCD M10/M13 Q1030
EFTP 231350Z AUTO 01006KT 9999 -SHSN NCD M09/M13 Q1030
EFTP 231320Z 02007KT 9999 FEW018 M09/M13 Q1030
EFTP 231250Z 03006KT 9999 FEW018 M09/M13 Q1029
EFTP 231220Z 05007KT 9999 FEW015 M09/M13 Q1029
EFTP 231150Z 04004KT 9999 FEW015 M09/M13 Q1029
EFTP 231120Z 03005KT 9999 FEW015 M09/M13 Q1029
EFTP 231050Z 04006KT 9999 FEW015 M09/M13 Q1029
EFTP 231020Z 02004KT 9999 FEW015 M10/M13 Q1029
EFTP 230950Z 02004KT 9999 FEW015 M10/M14 Q1029
EFTP 230920Z 36003KT CAVOK M11/M14 Q1028
EFTP 230850Z 34002KT CAVOK M12/M16 Q1028
EFTP 230820Z VRB00KT CAVOK M12/M16 Q1028
EFTP 230750Z 00000KT CAVOK M15/M18 Q1028
EFTP 230723Z RTD VRB01KT 9999 -SN FEW040 M17/M19 Q1028
EFTP 230650Z 00000KT 9999 FEW040 M18/M19 Q1027
EFTP 230620Z 00000KT 9999 -SN SCT032 M17/M19 Q1027
EFTP 230550Z AUTO VRB00KT 9999 -SG FEW022 M17/M19 Q1027
EFTP 230520Z AUTO VRB02KT 7000 -SN FEW033 SCT041 BKN050 BKN095 M16/M18 Q1027
EFTP 230450Z AUTO 00000KT 4800 -SHSN FEW022 SCT029 BKN037 BKN050 M15/M17 Q1027
EFTP 230420Z AUTO 04002KT 9999 -SHSN BKN048 OVC090 M16/M18 Q1027
EFTP 230350Z AUTO 05002KT 9999 -SG FEW080 BKN105 M17/M19 Q1027
EFTP 230320Z AUTO VRB02KT CAVOK M17/M19 Q1027
EFTP 230250Z AUTO 05004KT CAVOK M17/M20 Q1026
EFTP 230220Z AUTO 00000KT 9999 -SG FEW031 OVC070 M16/M18 Q1026
EFTP 230150Z AUTO 00000KT 9999 SCT035 BKN041 OVC050 M17/M19 Q1026
EFTP 230120Z AUTO 06002KT CAVOK M17/M19 Q1026
EFTP 230050Z AUTO VRB01KT CAVOK M18/M20 Q1026
EFTP 230020Z AUTO 00000KT CAVOK M18/M20 Q1026